createdAt,value
2018-04-29T00:00:38.517Z,5.90
2018-04-29T00:03:05.705Z,4.90
2018-04-29T00:05:32.910Z,5.07
2018-04-29T00:08:00.096Z,4.73
2018-04-29T00:10:27.305Z,5.10
2018-04-29T00:12:54.499Z,5.40
2018-04-29T00:15:21.694Z,7.50
2018-04-29T00:17:48.888Z,5.33
2018-04-29T00:20:16.086Z,4.97
2018-04-29T00:22:43.303Z,5.10
2018-04-29T00:25:10.506Z,5.80
2018-04-29T00:27:37.469Z,5.90
2018-04-29T00:30:04.694Z,6.40
2018-04-29T00:32:31.893Z,5.03
2018-04-29T00:34:59.088Z,5.40
2018-04-29T00:37:26.498Z,4.93
2018-04-29T00:39:53.902Z,6.03
2018-04-29T00:42:21.112Z,5.00
2018-04-29T00:44:48.070Z,5.87
2018-04-29T00:47:15.258Z,5.43
2018-04-29T00:49:42.457Z,4.40
2018-04-29T00:52:09.642Z,5.30
2018-04-29T00:54:36.855Z,4.83
2018-04-29T00:57:04.050Z,4.97
2018-04-29T00:59:31.249Z,6.53
2018-04-29T01:01:58.440Z,5.60
2018-04-29T01:04:25.653Z,4.40
2018-04-29T01:06:52.856Z,4.80
2018-04-29T01:09:20.034Z,6.57
2018-04-29T01:11:47.259Z,6.10
2018-04-29T01:14:14.606Z,5.83
2018-04-29T01:16:41.805Z,7.00
2018-04-29T01:19:10.015Z,5.30
2018-04-29T01:21:37.193Z,5.20
2018-04-29T01:24:04.398Z,4.73
2018-04-29T01:26:31.618Z,5.20
2018-04-29T01:28:58.809Z,5.13
2018-04-29T01:31:26.008Z,4.90
2018-04-29T01:33:53.182Z,4.80
2018-04-29T01:36:20.382Z,5.37
2018-04-29T01:38:47.599Z,4.87
2018-04-29T01:41:14.801Z,4.80
2018-04-29T01:43:42.001Z,4.90
2018-04-29T01:46:09.186Z,5.40
2018-04-29T01:48:36.385Z,5.13
2018-04-29T01:51:03.586Z,5.43
2018-04-29T01:53:30.808Z,5.57
2018-04-29T01:55:58.199Z,5.00
2018-04-29T01:58:25.388Z,4.90
2018-04-29T02:00:52.574Z,5.27
2018-04-29T02:03:19.766Z,5.67
2018-04-29T02:05:46.946Z,4.43
2018-04-29T02:08:14.118Z,4.70
2018-04-29T02:10:41.323Z,5.50
2018-04-29T02:13:08.522Z,4.70
2018-04-29T02:15:35.715Z,4.50
2018-04-29T02:18:02.924Z,5.30
2018-04-29T02:20:30.103Z,5.03
2018-04-29T02:22:57.313Z,5.00
2018-04-29T02:25:24.498Z,4.70
2018-04-29T02:27:51.709Z,4.60
2018-04-29T02:30:18.902Z,4.87
2018-04-29T02:32:46.101Z,4.83
2018-04-29T02:35:13.483Z,5.20
2018-04-29T02:37:40.671Z,5.80
2018-04-29T02:40:07.897Z,5.30
2018-04-29T02:42:35.076Z,4.80
2018-04-29T02:45:02.290Z,4.83
2018-04-29T02:47:29.493Z,4.77
2018-04-29T02:49:56.683Z,5.50
2018-04-29T02:52:23.889Z,4.93
2018-04-29T02:54:51.077Z,5.53
2018-04-29T02:57:18.268Z,5.50
2018-04-29T02:59:45.480Z,4.97
2018-04-29T03:02:12.675Z,5.07
2018-04-29T03:04:39.861Z,4.80
2018-04-29T03:07:07.053Z,4.27
2018-04-29T03:09:34.234Z,4.33
2018-04-29T03:12:01.435Z,4.27
2018-04-29T03:14:28.629Z,5.90
2018-04-29T03:16:55.813Z,5.37
2018-04-29T03:19:23.005Z,4.70
2018-04-29T03:21:50.202Z,5.00
2018-04-29T03:24:17.401Z,5.10
2018-04-29T03:26:44.809Z,5.20
2018-04-29T03:29:12.034Z,5.57
2018-04-29T03:31:39.213Z,4.60
2018-04-29T03:34:06.406Z,6.23
2018-04-29T03:36:33.593Z,5.40
2018-04-29T03:39:00.813Z,4.57
2018-04-29T03:41:27.998Z,5.33
2018-04-29T03:43:55.205Z,6.47
2018-04-29T03:46:22.412Z,6.40
2018-04-29T03:48:49.610Z,6.97
2018-04-29T03:51:16.798Z,6.33
2018-04-29T03:53:44.006Z,4.50
2018-04-29T03:56:11.202Z,4.77
2018-04-29T03:58:44.196Z,4.77
2018-04-29T04:01:16.979Z,5.27
2018-04-29T04:03:44.698Z,4.50
2018-04-29T04:06:11.885Z,4.67
2018-04-29T04:08:39.087Z,4.57
2018-04-29T04:11:06.276Z,4.50
2018-04-29T04:13:33.460Z,4.60
2018-04-29T04:16:00.657Z,4.53
2018-04-29T04:18:27.850Z,5.33
2018-04-29T04:20:55.057Z,4.60
2018-04-29T04:23:22.251Z,4.80
2018-04-29T04:25:49.447Z,5.00
2018-04-29T04:28:16.638Z,5.47
2018-04-29T04:30:43.830Z,5.30
2018-04-29T04:33:11.039Z,4.50
2018-04-29T04:35:38.236Z,4.50
2018-04-29T04:38:05.434Z,4.93
2018-04-29T04:40:32.627Z,4.73
2018-04-29T04:42:59.828Z,4.87
2018-04-29T04:45:27.014Z,5.03
2018-04-29T04:47:54.210Z,5.20
2018-04-29T04:50:21.399Z,4.37
2018-04-29T04:52:48.612Z,4.47
2018-04-29T04:55:15.810Z,4.77
2018-04-29T04:57:42.994Z,4.43
2018-04-29T05:00:09.942Z,4.53
2018-04-29T05:02:37.146Z,4.30
2018-04-29T05:05:04.330Z,4.43
2018-04-29T05:07:31.513Z,3.50
2018-04-29T05:09:58.705Z,4.10
2018-04-29T05:12:25.959Z,4.87
2018-04-29T05:14:53.175Z,4.53
2018-04-29T05:17:20.384Z,4.33
2018-04-29T05:19:47.589Z,4.30
2018-04-29T05:22:14.845Z,4.40
2018-04-29T05:24:42.165Z,4.97
2018-04-29T05:27:09.163Z,4.47
2018-04-29T05:29:36.350Z,3.50
2018-04-29T05:32:03.561Z,3.80
2018-04-29T05:34:30.739Z,4.30
2018-04-29T05:36:57.985Z,4.63
2018-04-29T05:39:25.180Z,4.70
2018-04-29T05:41:52.370Z,5.37
2018-04-29T05:44:19.574Z,4.60
2018-04-29T05:46:46.755Z,7.33
2018-04-29T05:49:13.733Z,6.30
2018-04-29T05:51:40.692Z,4.60
2018-04-29T05:54:07.917Z,4.17
2018-04-29T05:56:35.136Z,5.10
2018-04-29T05:59:02.334Z,4.27
2018-04-29T06:01:29.538Z,4.63
2018-04-29T06:03:56.714Z,4.17
2018-04-29T06:06:24.009Z,4.57
2018-04-29T06:08:51.318Z,4.43
2018-04-29T06:11:18.538Z,4.80
2018-04-29T06:13:45.725Z,4.30
2018-04-29T06:16:12.915Z,4.37
2018-04-29T06:18:39.874Z,4.20
2018-04-29T06:21:07.080Z,4.23
2018-04-29T06:23:34.276Z,3.70
2018-04-29T06:26:01.529Z,4.17
2018-04-29T06:28:28.888Z,4.37
2018-04-29T06:30:56.078Z,4.30
2018-04-29T06:33:23.265Z,4.10
2018-04-29T06:35:50.465Z,4.77
2018-04-29T06:38:17.650Z,5.17
2018-04-29T06:40:44.835Z,6.30
2018-04-29T06:43:11.841Z,4.07
2018-04-29T06:45:39.030Z,4.57
2018-04-29T06:48:06.393Z,4.37
2018-04-29T06:50:33.620Z,4.60
2018-04-29T06:53:00.802Z,3.93
2018-04-29T06:55:28.007Z,4.10
2018-04-29T06:57:55.200Z,4.60
2018-04-29T07:00:22.393Z,4.10
2018-04-29T07:02:49.587Z,4.30
2018-04-29T07:05:16.789Z,4.20
2018-04-29T07:07:43.975Z,4.40
2018-04-29T07:10:11.171Z,3.83
2018-04-29T07:12:38.366Z,5.40
2018-04-29T07:15:05.571Z,4.13
2018-04-29T07:17:32.831Z,4.40
2018-04-29T07:20:00.035Z,4.67
2018-04-29T07:22:27.468Z,3.90
2018-04-29T07:24:54.843Z,4.17
2018-04-29T07:27:22.030Z,4.83
2018-04-29T07:29:49.266Z,4.17
2018-04-29T07:32:16.481Z,4.83
2018-04-29T07:34:43.706Z,4.60
2018-04-29T07:37:10.909Z,4.60
2018-04-29T07:39:38.101Z,3.70
2018-04-29T07:42:05.309Z,3.90
2018-04-29T07:44:32.520Z,4.00
2018-04-29T07:46:59.717Z,4.57
2018-04-29T07:49:26.913Z,4.20
2018-04-29T07:51:54.116Z,4.57
2018-04-29T07:54:21.131Z,4.10
2018-04-29T07:56:48.345Z,4.27
2018-04-29T07:59:15.534Z,3.73
2018-04-29T08:01:42.723Z,2.80
2018-04-29T08:04:09.944Z,4.00
2018-04-29T08:06:37.129Z,4.47
2018-04-29T08:09:04.093Z,4.53
2018-04-29T08:11:31.289Z,2.83
2018-04-29T08:13:58.503Z,2.93
2018-04-29T08:16:25.703Z,4.53
2018-04-29T08:18:52.938Z,4.30
2018-04-29T08:21:20.141Z,4.23
2018-04-29T08:23:47.339Z,4.87
2018-04-29T08:26:14.554Z,3.40
2018-04-29T08:28:41.814Z,4.00
2018-04-29T08:31:09.018Z,3.97
2018-04-29T08:33:36.239Z,4.03
2018-04-29T08:36:03.444Z,3.27
2018-04-29T08:38:30.678Z,4.07
2018-04-29T08:40:57.874Z,3.40
2018-04-29T08:43:25.083Z,3.37
2018-04-29T08:45:52.276Z,3.47
2018-04-29T08:48:19.453Z,5.23
2018-04-29T08:50:46.693Z,4.17
2018-04-29T08:53:13.914Z,3.73
2018-04-29T08:55:41.121Z,4.43
2018-04-29T08:58:08.304Z,4.23
2018-04-29T09:00:35.493Z,3.60
2018-04-29T09:03:02.705Z,3.03
2018-04-29T09:05:29.897Z,3.60
2018-04-29T09:07:57.127Z,4.13
2018-04-29T09:10:24.322Z,3.90
2018-04-29T09:12:51.518Z,3.00
2018-04-29T09:15:18.727Z,3.50
2018-04-29T09:17:45.927Z,3.97
2018-04-29T09:20:13.138Z,4.00
2018-04-29T09:22:40.321Z,2.83
2018-04-29T09:25:07.559Z,3.60
2018-04-29T09:27:34.744Z,3.20
2018-04-29T09:30:01.946Z,3.70
2018-04-29T09:32:29.159Z,2.93
2018-04-29T09:34:56.358Z,3.13
2018-04-29T09:37:23.552Z,3.20
2018-04-29T09:39:50.755Z,3.37
2018-04-29T09:42:17.946Z,3.33
2018-04-29T09:44:45.355Z,3.17
2018-04-29T09:47:12.537Z,3.30
2018-04-29T09:49:39.617Z,4.23
2018-04-29T09:52:06.591Z,4.10
2018-04-29T09:54:33.870Z,3.10
2018-04-29T09:57:01.080Z,3.60
2018-04-29T09:59:28.295Z,3.40
2018-04-29T10:01:55.278Z,3.30
2018-04-29T10:04:22.459Z,3.60
2018-04-29T10:06:49.672Z,3.40
2018-04-29T10:09:16.856Z,3.93
2018-04-29T10:11:44.494Z,3.50
2018-04-29T10:14:12.554Z,3.73
2018-04-29T10:16:39.763Z,3.30
2018-04-29T10:19:16.870Z,3.67
2018-04-29T10:21:44.091Z,2.90
2018-04-29T10:24:11.281Z,3.70
2018-04-29T10:26:38.474Z,2.90
2018-04-29T10:29:05.675Z,4.47
2018-04-29T10:31:32.854Z,3.63
2018-04-29T10:34:00.042Z,3.97
2018-04-29T10:36:27.245Z,4.63
2018-04-29T10:38:54.441Z,3.93
2018-04-29T10:41:21.654Z,4.57
2018-04-29T10:43:48.850Z,4.43
2018-04-29T10:46:16.090Z,6.20
2018-04-29T10:48:43.299Z,4.00
2018-04-29T10:51:10.533Z,4.40
2018-04-29T10:53:37.848Z,3.47
2018-04-29T10:56:05.066Z,3.47
2018-04-29T10:58:32.283Z,3.43
2018-04-29T11:00:59.718Z,4.00
2018-04-29T11:03:26.906Z,3.60
2018-04-29T11:05:54.107Z,4.17
2018-04-29T11:08:21.299Z,3.93
2018-04-29T11:10:48.508Z,3.67
2018-04-29T11:13:15.749Z,3.70
2018-04-29T11:15:42.959Z,3.63
2018-04-29T11:18:09.918Z,4.30
2018-04-29T11:20:37.128Z,3.77
2018-04-29T11:23:04.349Z,5.20
2018-04-29T11:25:31.571Z,4.57
2018-04-29T11:27:58.797Z,4.40
2018-04-29T11:30:25.998Z,3.47
2018-04-29T11:32:53.218Z,4.27
2018-04-29T11:35:20.412Z,4.10
2018-04-29T11:37:47.639Z,5.77
2018-04-29T11:40:14.869Z,4.40
2018-04-29T11:42:42.280Z,3.00
2018-04-29T11:45:09.492Z,3.80
2018-04-29T11:47:36.774Z,3.20
2018-04-29T11:50:04.103Z,4.70
2018-04-29T11:52:31.299Z,5.07
2018-04-29T11:54:58.510Z,3.67
2018-04-29T11:57:25.483Z,3.60
2018-04-29T11:59:52.705Z,4.33
2018-04-29T12:02:19.741Z,3.10
2018-04-29T12:04:46.924Z,5.50
2018-04-29T12:07:14.142Z,3.60
2018-04-29T12:09:41.435Z,3.80
2018-04-29T12:12:08.715Z,4.13
2018-04-29T12:14:35.916Z,3.90
2018-04-29T12:17:03.117Z,5.10
2018-04-29T12:19:30.343Z,3.53
2018-04-29T12:21:57.628Z,6.13
2018-04-29T12:24:24.927Z,3.93
2018-04-29T12:26:53.144Z,4.37
2018-04-29T12:29:20.665Z,3.30
2018-04-29T12:31:47.915Z,3.27
2018-04-29T12:34:15.132Z,5.07
2018-04-29T12:36:42.316Z,3.80
2018-04-29T12:39:09.536Z,4.70
2018-04-29T12:41:36.740Z,4.37
2018-04-29T12:44:03.980Z,3.57
2018-04-29T12:46:31.227Z,3.70
2018-04-29T12:48:58.611Z,4.37
2018-04-29T12:51:25.799Z,6.10
2018-04-29T12:53:53.131Z,4.80
2018-04-29T12:56:20.401Z,3.60
2018-04-29T12:58:47.579Z,3.23
2018-04-29T13:01:14.810Z,3.70
2018-04-29T13:03:41.998Z,5.57
2018-04-29T13:06:09.264Z,4.90
2018-04-29T13:08:36.479Z,4.77
2018-04-29T13:11:04.168Z,4.73
2018-04-29T13:13:31.379Z,5.60
2018-04-29T13:15:58.595Z,4.90
2018-04-29T13:18:25.798Z,3.97
2018-04-29T13:20:53.008Z,3.33
2018-04-29T13:23:20.202Z,3.30
2018-04-29T13:25:47.464Z,3.40
2018-04-29T13:28:14.690Z,4.60
2018-04-29T13:30:41.968Z,4.90
2018-04-29T13:33:09.266Z,3.20
2018-04-29T13:35:36.522Z,3.77
2018-04-29T13:38:03.900Z,4.37
2018-04-29T13:40:31.107Z,3.50
2018-04-29T13:42:58.297Z,3.50
2018-04-29T13:45:25.570Z,3.37
2018-04-29T13:47:52.767Z,3.27
2018-04-29T13:50:20.043Z,6.37
2018-04-29T13:52:47.234Z,5.23
2018-04-29T13:55:14.429Z,4.47
2018-04-29T13:57:41.667Z,5.67
2018-04-29T14:00:08.961Z,4.30
2018-04-29T14:02:36.213Z,4.50
2018-04-29T14:05:03.407Z,5.13
2018-04-29T14:07:30.675Z,3.40
2018-04-29T14:09:57.947Z,3.70
2018-04-29T14:12:25.187Z,4.30
2018-04-29T14:14:53.057Z,7.83
2018-04-29T14:17:20.285Z,4.70
2018-04-29T14:19:47.583Z,3.77
2018-04-29T14:22:14.981Z,3.97
2018-04-29T14:24:42.401Z,5.27
2018-04-29T14:27:09.619Z,4.53
2018-04-29T14:29:36.820Z,4.47
2018-04-29T14:32:04.039Z,3.30
2018-04-29T14:34:31.250Z,3.93
2018-04-29T14:36:58.590Z,5.40
2018-04-29T14:39:25.799Z,5.30
2018-04-29T14:41:53.012Z,4.63
2018-04-29T14:44:20.273Z,6.80
2018-04-29T14:46:47.521Z,5.60
2018-04-29T14:49:14.716Z,4.97
2018-04-29T14:51:41.928Z,4.97
2018-04-29T14:54:08.924Z,4.50
2018-04-29T14:56:36.157Z,8.53
2018-04-29T14:59:03.360Z,4.47
2018-04-29T15:01:30.671Z,3.73
2018-04-29T15:03:57.786Z,4.83
2018-04-29T15:06:24.980Z,5.40
2018-04-29T15:08:52.186Z,3.40
2018-04-29T15:11:19.404Z,3.40
2018-04-29T15:13:46.619Z,5.90
2018-04-29T15:16:13.914Z,5.20
2018-04-29T15:18:46.967Z,5.50
2018-04-29T15:21:14.220Z,3.80
2018-04-29T15:23:41.441Z,4.10
2018-04-29T15:26:08.697Z,4.57
2018-04-29T15:28:35.907Z,6.70
2018-04-29T15:31:03.122Z,5.20
2018-04-29T15:33:30.333Z,4.40
2018-04-29T15:35:57.538Z,3.90
2018-04-29T15:38:24.761Z,4.10
2018-04-29T15:40:51.967Z,4.67
2018-04-29T15:43:19.163Z,4.27
2018-04-29T15:45:46.388Z,3.47
2018-04-29T15:48:13.623Z,4.17
2018-04-29T15:50:40.721Z,3.60
2018-04-29T15:53:07.950Z,3.40
2018-04-29T15:55:35.166Z,5.17
2018-04-29T15:58:02.400Z,4.90
2018-04-29T16:00:29.803Z,5.10
2018-04-29T16:02:57.018Z,4.67
2018-04-29T16:05:24.220Z,6.70
2018-04-29T16:07:51.502Z,4.73
2018-04-29T16:10:18.694Z,3.10
2018-04-29T16:12:45.922Z,3.63
2018-04-29T16:15:13.126Z,3.70
2018-04-29T16:17:40.345Z,4.60
2018-04-29T16:20:07.562Z,3.20
2018-04-29T16:22:34.529Z,4.27
2018-04-29T16:25:01.734Z,4.10
2018-04-29T16:27:28.954Z,3.23
2018-04-29T16:29:56.149Z,4.77
2018-04-29T16:32:23.399Z,3.33
2018-04-29T16:34:50.636Z,4.60
2018-04-29T16:37:17.598Z,3.90
2018-04-29T16:39:45.016Z,3.77
2018-04-29T16:42:12.252Z,4.10
2018-04-29T16:44:39.491Z,3.63
2018-04-29T16:47:06.753Z,3.63
2018-04-29T16:49:34.009Z,2.90
2018-04-29T16:52:01.260Z,3.83
2018-04-29T16:54:28.518Z,3.37
2018-04-29T16:56:55.717Z,3.40
2018-04-29T16:59:22.950Z,3.33
2018-04-29T17:01:50.149Z,3.00
2018-04-29T17:04:17.368Z,3.10
2018-04-29T17:06:44.559Z,2.60
2018-04-29T17:09:11.783Z,2.60
2018-04-29T17:11:38.978Z,3.53
2018-04-29T17:14:06.198Z,2.77
2018-04-29T17:16:33.405Z,2.37
2018-04-29T17:19:00.602Z,3.30
2018-04-29T17:21:27.832Z,3.20
2018-04-29T17:23:55.018Z,3.77
2018-04-29T17:26:22.096Z,3.43
2018-04-29T17:28:49.348Z,3.60
2018-04-29T17:31:16.560Z,3.50
2018-04-29T17:33:43.829Z,4.03
2018-04-29T17:36:11.053Z,3.53
2018-04-29T17:38:38.247Z,3.20
2018-04-29T17:41:05.202Z,3.17
2018-04-29T17:43:32.446Z,3.67
2018-04-29T17:45:59.643Z,3.07
2018-04-29T17:48:26.876Z,2.70
2018-04-29T17:50:54.071Z,2.83
2018-04-29T17:53:21.300Z,2.90
2018-04-29T17:55:48.510Z,3.00
2018-04-29T17:58:15.718Z,2.57
2018-04-29T18:00:47.867Z,2.67
2018-04-29T18:03:15.412Z,2.53
2018-04-29T18:05:42.930Z,2.40
2018-04-29T18:08:10.142Z,4.00
2018-04-29T18:10:37.355Z,2.60
2018-04-29T18:13:04.571Z,3.07
2018-04-29T18:15:31.803Z,3.00
2018-04-29T18:17:59.047Z,2.07
2018-04-29T18:20:26.238Z,2.60
2018-04-29T18:22:53.454Z,2.93
2018-04-29T18:25:20.687Z,2.23
2018-04-29T18:27:47.892Z,2.43
2018-04-29T18:30:15.207Z,2.67
2018-04-29T18:32:42.421Z,2.37
2018-04-29T18:35:09.616Z,2.50
2018-04-29T18:37:36.801Z,2.07
2018-04-29T18:40:03.779Z,2.70
2018-04-29T18:42:30.988Z,2.27
2018-04-29T18:44:58.189Z,2.30
2018-04-29T18:47:25.390Z,2.77
2018-04-29T18:49:52.606Z,2.40
2018-04-29T18:52:19.826Z,2.40
2018-04-29T18:54:47.047Z,3.07
2018-04-29T18:57:14.291Z,2.70
2018-04-29T18:59:41.495Z,2.30
2018-04-29T19:02:08.722Z,3.00
2018-04-29T19:04:35.918Z,2.47
2018-04-29T19:07:03.123Z,2.90
2018-04-29T19:09:30.460Z,3.03
2018-04-29T19:11:57.691Z,2.50
2018-04-29T19:14:24.893Z,2.77
2018-04-29T19:16:52.122Z,3.03
2018-04-29T19:19:19.324Z,2.87
2018-04-29T19:21:46.521Z,2.93
2018-04-29T19:24:13.861Z,2.37
2018-04-29T19:26:42.855Z,2.90
2018-04-29T19:29:10.087Z,2.30
2018-04-29T19:31:37.357Z,2.90
2018-04-29T19:34:04.762Z,2.60
2018-04-29T19:36:31.995Z,2.43
2018-04-29T19:38:59.253Z,3.50
2018-04-29T19:41:26.476Z,2.37
2018-04-29T19:43:53.728Z,3.07
2018-04-29T19:46:21.119Z,3.23
2018-04-29T19:48:48.350Z,2.90
2018-04-29T19:51:15.601Z,2.83
2018-04-29T19:53:42.812Z,2.90
2018-04-29T19:56:10.085Z,3.57
2018-04-29T19:58:37.302Z,2.73
2018-04-29T20:01:04.543Z,4.03
2018-04-29T20:03:31.811Z,3.00
2018-04-29T20:05:59.230Z,2.67
2018-04-29T20:08:26.543Z,2.90
2018-04-29T20:10:53.754Z,2.97
2018-04-29T20:13:20.757Z,3.50
2018-04-29T20:15:47.979Z,2.70
2018-04-29T20:18:15.189Z,2.80
2018-04-29T20:20:42.463Z,2.60
2018-04-29T20:23:09.966Z,3.40
2018-04-29T20:25:37.195Z,3.10
2018-04-29T20:28:04.170Z,2.70
2018-04-29T20:30:31.427Z,2.80
2018-04-29T20:32:58.658Z,3.07
2018-04-29T20:35:25.994Z,3.13
2018-04-29T20:37:53.224Z,2.80
2018-04-29T20:40:20.598Z,2.50
2018-04-29T20:42:47.824Z,3.53
2018-04-29T20:45:15.018Z,3.10
2018-04-29T20:47:42.260Z,3.30
2018-04-29T20:50:09.480Z,3.00
2018-04-29T20:52:36.694Z,3.20
2018-04-29T20:55:03.901Z,3.30
2018-04-29T20:57:30.896Z,3.60
2018-04-29T20:59:58.137Z,2.77
2018-04-29T21:02:25.341Z,3.17
2018-04-29T21:04:52.563Z,2.93
2018-04-29T21:07:19.779Z,3.73
2018-04-29T21:09:46.983Z,3.00
2018-04-29T21:12:14.204Z,3.13
2018-04-29T21:14:41.398Z,3.30
2018-04-29T21:17:08.632Z,3.63
2018-04-29T21:19:36.002Z,3.57
2018-04-29T21:22:03.201Z,3.20
2018-04-29T21:24:30.413Z,3.03
2018-04-29T21:26:57.603Z,5.30
2018-04-29T21:29:24.790Z,3.30
2018-04-29T21:31:51.979Z,2.80
2018-04-29T21:34:19.190Z,2.70
2018-04-29T21:36:46.412Z,2.90
2018-04-29T21:39:13.605Z,2.73
2018-04-29T21:41:40.805Z,2.63
2018-04-29T21:44:08.010Z,2.77
2018-04-29T21:46:35.238Z,2.53
2018-04-29T21:49:02.425Z,2.30
2018-04-29T21:51:29.634Z,2.57
2018-04-29T21:53:56.838Z,2.87
2018-04-29T21:56:24.140Z,2.07
2018-04-29T21:58:51.459Z,2.30
2018-04-29T22:01:18.676Z,2.60
2018-04-29T22:03:45.879Z,2.17
2018-04-29T22:06:13.084Z,2.13
2018-04-29T22:08:40.269Z,1.37
2018-04-29T22:11:07.484Z,2.50
2018-04-29T22:13:34.670Z,1.70
2018-04-29T22:16:01.880Z,1.73
2018-04-29T22:18:29.081Z,1.63
2018-04-29T22:20:56.317Z,2.20
2018-04-29T22:23:23.508Z,2.17
2018-04-29T22:25:50.702Z,1.67
2018-04-29T22:28:17.894Z,1.80
2018-04-29T22:30:45.092Z,1.90
2018-04-29T22:33:12.318Z,2.40
2018-04-29T22:35:39.507Z,1.60
2018-04-29T22:38:06.708Z,1.73
2018-04-29T22:40:33.906Z,1.60
2018-04-29T22:43:01.108Z,1.80
2018-04-29T22:45:28.292Z,1.87
2018-04-29T22:47:55.495Z,1.50
2018-04-29T22:50:22.685Z,1.90
2018-04-29T22:52:49.903Z,1.80
2018-04-29T22:55:17.097Z,2.13
2018-04-29T22:57:44.285Z,2.40
2018-04-29T23:00:11.496Z,2.03
2018-04-29T23:02:38.682Z,2.00
2018-04-29T23:05:05.894Z,2.43
2018-04-29T23:07:33.076Z,1.80
2018-04-29T23:10:00.314Z,1.97
2018-04-29T23:12:27.522Z,1.83
2018-04-29T23:14:54.744Z,2.10
2018-04-29T23:17:21.937Z,2.07
2018-04-29T23:19:49.125Z,2.00
2018-04-29T23:22:16.331Z,1.63
2018-04-29T23:24:43.521Z,1.90
2018-04-29T23:27:10.729Z,1.83
2018-04-29T23:29:37.923Z,1.67
2018-04-29T23:32:05.126Z,2.40
2018-04-29T23:34:32.090Z,1.97
2018-04-29T23:36:59.271Z,2.33
2018-04-29T23:39:26.493Z,1.67
2018-04-29T23:41:53.677Z,2.30
2018-04-29T23:44:20.864Z,2.33
2018-04-29T23:46:48.057Z,2.23
2018-04-29T23:49:15.250Z,2.80
2018-04-29T23:51:42.451Z,2.17
2018-04-29T23:54:09.664Z,2.07
2018-04-29T23:56:36.871Z,2.47
2018-04-29T23:59:04.079Z,2.07
